createdAt,value
2022-12-31T00:00:22.060Z,67.33
2022-12-31T00:01:22.011Z,72.48
2022-12-31T00:02:22.148Z,66.47
2022-12-31T00:03:22.255Z,65.98
2022-12-31T00:04:22.010Z,69.69
2022-12-31T00:05:21.963Z,72.94
2022-12-31T00:06:22.038Z,73.13
2022-12-31T00:07:21.941Z,69.81
2022-12-31T00:08:21.954Z,67.68
2022-12-31T00:09:21.952Z,66.22
2022-12-31T00:10:21.928Z,62.14
2022-12-31T00:11:22.099Z,64.12
2022-12-31T00:12:21.895Z,69.02
2022-12-31T00:13:21.940Z,67.52
2022-12-31T00:14:21.887Z,68.43
2022-12-31T00:15:21.891Z,66.58
2022-12-31T00:16:21.951Z,72.87
2022-12-31T00:17:21.861Z,60.14
2022-12-31T00:18:21.868Z,68.74
2022-12-31T00:19:21.860Z,67.63
2022-12-31T00:20:21.851Z,70.42
2022-12-31T00:21:21.814Z,62.73
2022-12-31T00:22:21.830Z,68.81
2022-12-31T00:23:21.816Z,67.21
2022-12-31T00:24:21.810Z,65.56
2022-12-31T00:25:21.768Z,70.24
2022-12-31T00:26:21.788Z,67.35
2022-12-31T00:27:21.846Z,71.69
2022-12-31T00:28:21.729Z,64.62
2022-12-31T00:29:21.741Z,58.59
2022-12-31T00:30:21.746Z,57.59
2022-12-31T00:31:21.757Z,51.28
2022-12-31T00:32:21.702Z,60.79
2022-12-31T00:33:21.693Z,68.99
2022-12-31T00:34:21.705Z,67.86
2022-12-31T00:35:22.669Z,60.15
2022-12-31T00:36:21.661Z,63.96
2022-12-31T00:37:21.679Z,72.17
2022-12-31T00:38:21.629Z,60.30
2022-12-31T00:39:21.645Z,66.48
2022-12-31T00:40:21.615Z,67.96
2022-12-31T00:41:21.592Z,60.33
2022-12-31T00:42:21.586Z,62.47
2022-12-31T00:43:21.596Z,68.61
2022-12-31T00:44:21.565Z,65.97
2022-12-31T00:45:21.573Z,67.04
2022-12-31T00:46:21.585Z,68.38
2022-12-31T00:47:21.584Z,66.54
2022-12-31T00:48:21.542Z,66.06
2022-12-31T00:49:21.530Z,68.11
2022-12-31T00:50:21.511Z,62.74
2022-12-31T00:51:21.507Z,53.75
2022-12-31T00:52:21.511Z,66.14
2022-12-31T00:53:21.496Z,61.90
2022-12-31T00:54:21.468Z,68.97
2022-12-31T00:55:21.479Z,60.00
2022-12-31T00:56:21.465Z,66.39
2022-12-31T00:57:22.480Z,63.42
2022-12-31T00:58:21.439Z,60.66
2022-12-31T00:59:21.483Z,56.14
2022-12-31T01:00:21.431Z,67.01
2022-12-31T01:01:21.507Z,70.28
2022-12-31T01:02:21.690Z,61.55
2022-12-31T01:03:21.435Z,67.22
2022-12-31T01:04:21.375Z,64.65
2022-12-31T01:05:21.368Z,67.40
2022-12-31T01:06:21.357Z,60.26
2022-12-31T01:07:21.400Z,66.52
2022-12-31T01:08:21.324Z,58.70
2022-12-31T01:09:21.343Z,67.30
2022-12-31T01:10:21.314Z,57.82
2022-12-31T01:11:21.299Z,55.90
2022-12-31T01:12:21.303Z,48.48
2022-12-31T01:13:21.293Z,70.83
2022-12-31T01:14:21.261Z,55.40
2022-12-31T01:15:21.265Z,61.84
2022-12-31T01:16:21.304Z,66.04
2022-12-31T01:17:21.274Z,66.66
2022-12-31T01:18:21.309Z,63.28
2022-12-31T01:19:21.285Z,50.65
2022-12-31T01:20:21.196Z,67.33
2022-12-31T01:21:21.192Z,69.74
2022-12-31T01:22:21.190Z,61.35
2022-12-31T01:23:21.185Z,55.65
2022-12-31T01:24:21.189Z,55.19
2022-12-31T01:25:21.229Z,69.43
2022-12-31T01:26:21.155Z,70.01
2022-12-31T01:27:21.190Z,61.73
2022-12-31T01:28:21.105Z,62.14
2022-12-31T01:29:21.148Z,71.25
2022-12-31T01:30:21.094Z,70.69
2022-12-31T01:31:21.303Z,55.22
2022-12-31T01:32:21.086Z,54.27
2022-12-31T01:33:21.095Z,63.57
2022-12-31T01:34:21.071Z,65.45
2022-12-31T01:35:21.055Z,62.00
2022-12-31T01:36:25.529Z,65.07
2022-12-31T01:37:23.018Z,69.87
2022-12-31T01:38:20.986Z,68.04
2022-12-31T01:39:20.990Z,60.37
2022-12-31T01:40:20.979Z,68.65
2022-12-31T01:41:21.014Z,62.49
2022-12-31T01:42:20.979Z,68.46
2022-12-31T01:43:20.969Z,65.99
2022-12-31T01:44:20.960Z,65.24
2022-12-31T01:45:20.955Z,61.91
2022-12-31T01:46:20.954Z,68.24
2022-12-31T01:47:20.951Z,69.48
2022-12-31T01:48:20.899Z,68.74
2022-12-31T01:49:20.923Z,69.48
2022-12-31T01:50:20.895Z,64.49
2022-12-31T01:51:20.850Z,60.27
2022-12-31T01:52:20.912Z,67.24
2022-12-31T01:53:20.822Z,67.80
2022-12-31T01:54:20.882Z,65.26
2022-12-31T01:55:20.815Z,49.25
2022-12-31T01:56:20.841Z,57.99
2022-12-31T01:57:20.787Z,62.63
2022-12-31T01:58:21.731Z,63.27
2022-12-31T01:59:20.778Z,59.42
2022-12-31T02:00:20.791Z,54.63
2022-12-31T02:01:23.351Z,59.89
2022-12-31T02:02:20.875Z,58.41
2022-12-31T02:03:20.753Z,59.02
2022-12-31T02:04:20.730Z,68.79
2022-12-31T02:05:20.791Z,65.95
2022-12-31T02:06:20.695Z,64.22
2022-12-31T02:07:20.690Z,65.01
2022-12-31T02:08:20.714Z,63.40
2022-12-31T02:09:20.661Z,55.63
2022-12-31T02:10:20.691Z,66.43
2022-12-31T02:11:20.666Z,67.45
2022-12-31T02:12:20.644Z,58.84
2022-12-31T02:13:20.608Z,63.40
2022-12-31T02:14:20.672Z,66.01
2022-12-31T02:15:20.611Z,54.72
2022-12-31T02:16:20.623Z,52.55
2022-12-31T02:17:20.618Z,68.63
2022-12-31T02:18:20.584Z,51.00
2022-12-31T02:19:20.568Z,49.58
2022-12-31T02:20:20.542Z,61.21
2022-12-31T02:21:20.532Z,56.25
2022-12-31T02:22:20.533Z,69.91
2022-12-31T02:23:21.521Z,61.45
2022-12-31T02:24:20.491Z,60.10
2022-12-31T02:25:20.517Z,51.69
2022-12-31T02:26:20.556Z,58.13
2022-12-31T02:27:20.464Z,59.15
2022-12-31T02:28:20.471Z,56.76
2022-12-31T02:29:20.453Z,58.71
2022-12-31T02:30:20.429Z,66.99
2022-12-31T02:31:20.451Z,64.49
2022-12-31T02:32:20.432Z,63.56
2022-12-31T02:33:20.404Z,66.52
2022-12-31T02:34:20.415Z,64.97
2022-12-31T02:35:20.394Z,50.27
2022-12-31T02:36:20.375Z,56.03
2022-12-31T02:37:20.379Z,63.56
2022-12-31T02:38:20.347Z,69.57
2022-12-31T02:39:20.343Z,69.95
2022-12-31T02:40:21.365Z,59.19
2022-12-31T02:41:20.321Z,49.68
2022-12-31T02:42:20.373Z,60.24
2022-12-31T02:43:20.318Z,65.20
2022-12-31T02:44:20.297Z,54.77
2022-12-31T02:45:20.279Z,62.23
2022-12-31T02:46:20.362Z,62.37
2022-12-31T02:47:20.283Z,64.43
2022-12-31T02:48:20.324Z,61.32
2022-12-31T02:49:20.233Z,57.74
2022-12-31T02:50:20.223Z,67.98
2022-12-31T02:51:20.203Z,66.66
2022-12-31T02:52:20.265Z,61.53
2022-12-31T02:53:20.206Z,69.62
2022-12-31T02:54:20.170Z,52.34
2022-12-31T02:55:20.205Z,60.79
2022-12-31T02:56:20.156Z,51.01
2022-12-31T02:57:20.145Z,63.92
2022-12-31T02:58:20.168Z,66.81
2022-12-31T02:59:20.110Z,58.50
2022-12-31T03:00:20.114Z,64.93
2022-12-31T03:01:20.172Z,65.22
2022-12-31T03:02:20.274Z,62.62
2022-12-31T03:03:20.081Z,61.32
2022-12-31T03:04:20.082Z,68.81
2022-12-31T03:05:20.131Z,56.85
2022-12-31T03:06:20.045Z,58.76
2022-12-31T03:07:20.032Z,69.26
2022-12-31T03:08:20.136Z,65.11
2022-12-31T03:09:20.025Z,66.87
2022-12-31T03:10:20.010Z,59.15
2022-12-31T03:11:20.006Z,65.81
2022-12-31T03:12:20.029Z,61.26
2022-12-31T03:13:20.016Z,61.76
2022-12-31T03:14:19.951Z,61.59
2022-12-31T03:15:20.333Z,66.32
2022-12-31T03:16:19.967Z,61.68
2022-12-31T03:17:19.968Z,69.85
2022-12-31T03:18:19.948Z,65.04
2022-12-31T03:19:20.746Z,60.99
2022-12-31T03:20:19.893Z,59.20
2022-12-31T03:21:19.917Z,69.07
2022-12-31T03:22:19.867Z,63.90
2022-12-31T03:23:19.886Z,67.06
2022-12-31T03:24:19.841Z,66.03
2022-12-31T03:25:19.846Z,59.63
2022-12-31T03:26:19.814Z,56.79
2022-12-31T03:27:19.903Z,68.07
2022-12-31T03:28:19.851Z,63.92
2022-12-31T03:29:19.792Z,64.05
2022-12-31T03:30:19.800Z,67.40
2022-12-31T03:31:19.809Z,66.29
2022-12-31T03:32:19.809Z,65.05
2022-12-31T03:33:19.848Z,63.94
2022-12-31T03:34:19.753Z,62.09
2022-12-31T03:35:19.797Z,58.70
2022-12-31T03:36:19.733Z,64.48
2022-12-31T03:37:19.699Z,63.13
2022-12-31T03:38:19.720Z,57.35
2022-12-31T03:39:19.733Z,65.55
2022-12-31T03:40:19.670Z,66.22
2022-12-31T03:41:19.669Z,70.76
2022-12-31T03:42:19.672Z,62.88
2022-12-31T03:43:19.661Z,71.29
2022-12-31T03:44:19.633Z,59.76
2022-12-31T03:45:19.619Z,68.48
2022-12-31T03:46:19.643Z,64.82
2022-12-31T03:47:19.587Z,69.21
2022-12-31T03:48:19.617Z,65.35
2022-12-31T03:49:19.569Z,56.93
2022-12-31T03:50:19.570Z,69.26
2022-12-31T03:51:19.549Z,63.10
2022-12-31T03:52:19.555Z,65.13
2022-12-31T03:53:19.531Z,69.58
2022-12-31T03:54:19.551Z,69.02
2022-12-31T03:55:19.520Z,71.60
2022-12-31T03:56:19.478Z,58.21
2022-12-31T03:57:19.517Z,64.22
2022-12-31T03:58:19.497Z,66.09
2022-12-31T03:59:19.456Z,68.51
2022-12-31T04:00:19.469Z,58.00
2022-12-31T04:01:19.518Z,59.68
2022-12-31T04:02:24.703Z,62.52
2022-12-31T04:03:21.452Z,63.01
2022-12-31T04:04:19.401Z,64.78
2022-12-31T04:05:19.474Z,65.48
2022-12-31T04:06:19.363Z,68.62
2022-12-31T04:07:19.343Z,70.14
2022-12-31T04:08:19.358Z,64.04
2022-12-31T04:09:19.331Z,64.47
2022-12-31T04:10:19.351Z,59.20
2022-12-31T04:11:21.164Z,67.42
2022-12-31T04:12:20.347Z,66.42
2022-12-31T04:13:19.295Z,60.93
2022-12-31T04:14:19.272Z,70.43
2022-12-31T04:15:19.348Z,64.54
2022-12-31T04:16:19.327Z,68.00
2022-12-31T04:17:20.252Z,69.21
2022-12-31T04:18:19.267Z,69.34
2022-12-31T04:19:19.236Z,63.33
2022-12-31T04:20:19.201Z,70.91
2022-12-31T04:21:19.200Z,68.53
2022-12-31T04:22:19.189Z,64.68
2022-12-31T04:23:19.165Z,63.52
2022-12-31T04:24:20.161Z,64.85
2022-12-31T04:25:19.139Z,69.69
2022-12-31T04:26:19.138Z,69.82
2022-12-31T04:27:19.153Z,63.88
2022-12-31T04:28:19.101Z,68.65
2022-12-31T04:29:19.120Z,60.90
2022-12-31T04:30:19.075Z,72.53
2022-12-31T04:31:19.119Z,61.25
2022-12-31T04:32:19.058Z,69.98
2022-12-31T04:33:19.061Z,66.58
2022-12-31T04:34:19.070Z,65.35
2022-12-31T04:35:19.043Z,70.71
2022-12-31T04:36:19.009Z,71.71
2022-12-31T04:37:19.022Z,68.91
2022-12-31T04:38:19.001Z,69.15
2022-12-31T04:39:18.964Z,68.51
2022-12-31T04:40:18.960Z,72.97
2022-12-31T04:41:19.018Z,65.47
2022-12-31T04:42:18.939Z,59.98
2022-12-31T04:43:18.916Z,63.23
2022-12-31T04:44:18.944Z,60.49
2022-12-31T04:45:18.933Z,64.80
2022-12-31T04:46:18.911Z,62.36
2022-12-31T04:47:23.687Z,69.14
2022-12-31T04:48:19.891Z,58.88
2022-12-31T04:49:18.853Z,67.81
2022-12-31T04:50:18.881Z,58.44
2022-12-31T04:51:18.855Z,66.98
2022-12-31T04:52:18.842Z,64.73
2022-12-31T04:53:18.853Z,66.42
2022-12-31T04:54:18.793Z,69.87
2022-12-31T04:55:18.797Z,69.30
2022-12-31T04:56:18.774Z,70.36
2022-12-31T04:57:18.765Z,65.50
2022-12-31T04:58:50.666Z,61.54
2022-12-31T04:59:18.728Z,64.30
2022-12-31T05:00:18.724Z,63.77
2022-12-31T05:01:18.863Z,66.23
2022-12-31T05:02:18.879Z,65.20
2022-12-31T05:03:18.732Z,60.62
2022-12-31T05:04:18.721Z,64.31
2022-12-31T05:05:18.782Z,57.32
2022-12-31T05:06:18.647Z,66.74
2022-12-31T05:07:18.650Z,60.72
2022-12-31T05:08:18.630Z,61.37
2022-12-31T05:09:18.610Z,71.64
2022-12-31T05:10:18.619Z,72.50
2022-12-31T05:11:18.602Z,65.88
2022-12-31T05:12:18.580Z,64.46
2022-12-31T05:13:18.593Z,65.07
2022-12-31T05:14:18.548Z,63.41
2022-12-31T05:15:18.557Z,69.24
2022-12-31T05:16:18.568Z,64.61
2022-12-31T05:17:18.518Z,63.45
2022-12-31T05:18:18.513Z,61.69
2022-12-31T05:19:19.516Z,63.98
2022-12-31T05:20:18.484Z,71.53
2022-12-31T05:21:18.462Z,63.20
2022-12-31T05:22:18.472Z,66.13
2022-12-31T05:23:18.445Z,68.09
2022-12-31T05:24:18.452Z,69.67
2022-12-31T05:25:19.431Z,69.73
2022-12-31T05:26:18.422Z,71.67
2022-12-31T05:27:18.407Z,68.16
2022-12-31T05:28:18.614Z,65.45
2022-12-31T05:29:18.415Z,67.94
2022-12-31T05:30:18.373Z,65.71
2022-12-31T05:31:18.410Z,58.78
2022-12-31T05:32:18.343Z,69.38
2022-12-31T05:33:18.349Z,73.13
2022-12-31T05:34:18.380Z,68.09
2022-12-31T05:35:18.308Z,59.33
2022-12-31T05:36:18.297Z,58.12
2022-12-31T05:37:18.287Z,67.88
2022-12-31T05:38:18.332Z,70.39
2022-12-31T05:39:18.284Z,65.33
2022-12-31T05:40:18.263Z,66.89
2022-12-31T05:41:18.237Z,61.75
2022-12-31T05:42:18.228Z,61.84
2022-12-31T05:43:18.220Z,67.48
2022-12-31T05:44:18.283Z,68.41
2022-12-31T05:45:18.362Z,65.41
2022-12-31T05:46:18.216Z,67.54
2022-12-31T05:47:18.163Z,66.52
2022-12-31T05:48:18.158Z,71.34
2022-12-31T05:49:18.144Z,68.87
2022-12-31T05:50:18.176Z,68.05
2022-12-31T05:51:18.116Z,59.43
2022-12-31T05:52:18.112Z,62.88
2022-12-31T05:53:18.095Z,59.22
2022-12-31T05:54:18.086Z,70.90
2022-12-31T05:55:18.075Z,66.34
2022-12-31T05:56:18.053Z,65.84
2022-12-31T05:57:18.051Z,69.61
2022-12-31T05:58:18.042Z,69.27
2022-12-31T05:59:18.028Z,66.60
2022-12-31T06:00:18.012Z,68.06
2022-12-31T06:01:18.020Z,67.25
2022-12-31T06:02:18.011Z,60.10
2022-12-31T06:03:18.061Z,67.88
2022-12-31T06:04:17.961Z,60.99
2022-12-31T06:05:24.137Z,64.10
2022-12-31T06:06:19.928Z,65.95
2022-12-31T06:07:17.947Z,69.05
2022-12-31T06:08:17.909Z,69.77
2022-12-31T06:09:17.897Z,69.77
2022-12-31T06:10:17.894Z,61.87
2022-12-31T06:11:17.870Z,64.76
2022-12-31T06:12:17.877Z,68.50
2022-12-31T06:13:17.855Z,70.27
2022-12-31T06:14:17.835Z,60.66
2022-12-31T06:15:17.859Z,65.59
2022-12-31T06:16:17.861Z,63.02
2022-12-31T06:17:17.815Z,72.60
2022-12-31T06:18:17.911Z,66.31
2022-12-31T06:19:17.778Z,71.65
2022-12-31T06:20:17.877Z,64.25
2022-12-31T06:21:17.770Z,63.87
2022-12-31T06:22:17.749Z,64.53
2022-12-31T06:23:17.747Z,65.66
2022-12-31T06:24:17.717Z,65.70
2022-12-31T06:25:17.730Z,70.65
2022-12-31T06:26:17.782Z,66.34
2022-12-31T06:27:17.678Z,66.16
2022-12-31T06:28:20.297Z,68.94
2022-12-31T06:29:18.655Z,69.64
2022-12-31T06:30:17.644Z,66.49
2022-12-31T06:31:17.643Z,69.49
2022-12-31T06:32:17.618Z,72.58
2022-12-31T06:33:17.607Z,63.40
2022-12-31T06:34:17.598Z,66.76
2022-12-31T06:35:17.807Z,71.68
2022-12-31T06:36:17.568Z,66.79
2022-12-31T06:37:17.551Z,68.33
2022-12-31T06:38:17.608Z,67.63
2022-12-31T06:39:17.563Z,68.72
2022-12-31T06:40:17.523Z,68.55
2022-12-31T06:41:17.530Z,68.18
2022-12-31T06:42:17.494Z,70.68
2022-12-31T06:43:17.566Z,68.90
2022-12-31T06:44:17.487Z,65.46
2022-12-31T06:45:17.467Z,67.06
2022-12-31T06:46:17.492Z,68.35
2022-12-31T06:47:17.493Z,70.16
2022-12-31T06:48:17.434Z,68.04
2022-12-31T06:49:17.526Z,70.13
2022-12-31T06:50:17.419Z,71.28
2022-12-31T06:51:17.735Z,69.07
2022-12-31T06:52:17.375Z,68.54
2022-12-31T06:53:17.375Z,62.48
2022-12-31T06:54:17.380Z,67.37
2022-12-31T06:55:17.353Z,67.83
2022-12-31T06:56:17.340Z,70.41
2022-12-31T06:57:17.326Z,66.10
2022-12-31T06:58:17.314Z,69.59
2022-12-31T06:59:17.781Z,71.36
2022-12-31T07:00:17.284Z,64.94
2022-12-31T07:01:17.328Z,72.62
2022-12-31T07:02:17.462Z,70.17
2022-12-31T07:03:17.378Z,63.46
2022-12-31T07:04:17.264Z,67.54
2022-12-31T07:05:17.236Z,62.97
2022-12-31T07:06:17.237Z,71.66
2022-12-31T07:07:17.222Z,60.05
2022-12-31T07:08:17.198Z,64.31
2022-12-31T07:09:17.191Z,71.81
2022-12-31T07:10:17.187Z,69.56
2022-12-31T07:11:17.162Z,69.35
2022-12-31T07:12:17.141Z,61.70
2022-12-31T07:13:17.141Z,66.30
2022-12-31T07:14:17.128Z,64.51
2022-12-31T07:15:17.137Z,68.90
2022-12-31T07:16:17.124Z,71.60
2022-12-31T07:17:17.137Z,72.35
2022-12-31T07:18:17.098Z,67.94
2022-12-31T07:19:17.073Z,60.26
2022-12-31T07:20:17.142Z,70.29
2022-12-31T07:21:17.065Z,71.92
2022-12-31T07:22:17.030Z,68.18
2022-12-31T07:23:17.076Z,71.42
2022-12-31T07:24:16.996Z,73.10
2022-12-31T07:25:17.006Z,74.32
2022-12-31T07:26:17.002Z,73.25
2022-12-31T07:27:17.977Z,73.54
2022-12-31T07:28:16.954Z,70.24
2022-12-31T07:29:16.950Z,69.23
2022-12-31T07:30:16.943Z,73.01
2022-12-31T07:31:16.982Z,68.44
2022-12-31T07:32:16.932Z,72.47
2022-12-31T07:33:16.903Z,68.75
2022-12-31T07:34:16.899Z,71.72
2022-12-31T07:35:16.894Z,69.58
2022-12-31T07:36:16.878Z,74.39
2022-12-31T07:37:16.867Z,70.01
2022-12-31T07:38:16.964Z,69.30
2022-12-31T07:39:16.827Z,67.03
2022-12-31T07:40:16.840Z,69.22
2022-12-31T07:41:16.838Z,72.78
2022-12-31T07:42:16.877Z,72.31
2022-12-31T07:43:16.830Z,72.14
2022-12-31T07:44:16.768Z,71.33
2022-12-31T07:45:16.762Z,68.26
2022-12-31T07:46:17.818Z,68.93
2022-12-31T07:47:16.733Z,68.60
2022-12-31T07:48:16.724Z,72.89
2022-12-31T07:49:16.813Z,70.82
2022-12-31T07:50:16.688Z,70.56
2022-12-31T07:51:17.691Z,70.96
2022-12-31T07:52:16.706Z,72.52
2022-12-31T07:53:16.677Z,73.95
2022-12-31T07:54:16.677Z,71.98
2022-12-31T07:55:16.635Z,68.97
2022-12-31T07:56:16.638Z,68.43
2022-12-31T07:57:16.692Z,65.59
2022-12-31T07:58:16.647Z,71.14
2022-12-31T07:59:22.445Z,73.18
2022-12-31T08:00:17.715Z,72.04
2022-12-31T08:01:16.645Z,72.84
2022-12-31T08:02:16.678Z,65.77
2022-12-31T08:03:16.560Z,69.36
2022-12-31T08:04:16.538Z,68.55
2022-12-31T08:05:16.537Z,69.32
2022-12-31T08:06:16.554Z,71.45
2022-12-31T08:07:16.506Z,73.27
2022-12-31T08:08:16.513Z,68.89
2022-12-31T08:09:16.480Z,71.30
2022-12-31T08:10:18.170Z,72.07
2022-12-31T08:11:17.454Z,68.59
2022-12-31T08:12:16.443Z,73.55
2022-12-31T08:13:16.511Z,69.83
2022-12-31T08:14:16.426Z,70.97
2022-12-31T08:15:16.436Z,72.05
2022-12-31T08:16:16.438Z,72.38
2022-12-31T08:17:16.364Z,71.25
2022-12-31T08:18:16.373Z,75.54
2022-12-31T08:19:16.364Z,70.79
2022-12-31T08:20:16.361Z,70.72
2022-12-31T08:21:16.337Z,69.56
2022-12-31T08:22:16.323Z,71.97
2022-12-31T08:23:16.318Z,70.56
2022-12-31T08:24:16.286Z,73.07
2022-12-31T08:25:16.300Z,71.14
2022-12-31T08:26:16.309Z,71.86
2022-12-31T08:27:16.273Z,72.38
2022-12-31T08:28:16.260Z,73.34
2022-12-31T08:29:16.254Z,70.06
2022-12-31T08:30:16.216Z,71.32
2022-12-31T08:31:16.310Z,70.75
2022-12-31T08:32:16.237Z,70.28
2022-12-31T08:33:16.210Z,72.95
2022-12-31T08:34:16.201Z,71.67
2022-12-31T08:35:16.177Z,72.97
2022-12-31T08:36:16.160Z,69.51
2022-12-31T08:37:16.158Z,71.84
2022-12-31T08:38:16.134Z,69.93
2022-12-31T08:39:16.153Z,74.63
2022-12-31T08:40:16.149Z,71.43
2022-12-31T08:41:16.103Z,72.67
2022-12-31T08:42:16.142Z,72.23
2022-12-31T08:43:16.085Z,71.17
2022-12-31T08:44:16.089Z,73.45
2022-12-31T08:45:16.072Z,73.35
2022-12-31T08:46:16.128Z,70.62
2022-12-31T08:47:16.050Z,74.39
2022-12-31T08:48:16.039Z,72.06
2022-12-31T08:49:16.178Z,68.99
2022-12-31T08:50:24.086Z,73.28
2022-12-31T08:51:16.017Z,73.38
2022-12-31T08:52:15.993Z,72.13
2022-12-31T08:53:15.969Z,72.83
2022-12-31T08:54:16.046Z,71.94
2022-12-31T08:55:15.964Z,72.30
2022-12-31T08:56:15.932Z,73.49
2022-12-31T08:57:15.931Z,73.02
2022-12-31T08:58:15.908Z,72.13
2022-12-31T08:59:15.896Z,73.51
2022-12-31T09:00:15.891Z,71.76
2022-12-31T09:01:16.001Z,71.25
2022-12-31T09:02:15.901Z,71.90
2022-12-31T09:03:15.843Z,73.06
2022-12-31T09:04:15.901Z,72.99
2022-12-31T09:05:15.865Z,73.07
2022-12-31T09:06:15.846Z,73.21
2022-12-31T09:07:15.809Z,70.96
2022-12-31T09:08:15.796Z,70.73
2022-12-31T09:09:15.775Z,73.76
2022-12-31T09:10:15.795Z,72.02
2022-12-31T09:11:22.628Z,75.04
2022-12-31T09:12:17.750Z,73.05
2022-12-31T09:13:15.748Z,75.43
2022-12-31T09:14:15.727Z,71.26
2022-12-31T09:15:15.729Z,75.08
2022-12-31T09:16:15.756Z,72.22
2022-12-31T09:17:15.700Z,73.51
2022-12-31T09:18:15.678Z,72.27
2022-12-31T09:19:15.719Z,74.41
2022-12-31T09:20:15.693Z,74.34
2022-12-31T09:21:15.694Z,73.74
2022-12-31T09:22:15.644Z,73.68
2022-12-31T09:23:15.619Z,71.89
2022-12-31T09:24:15.626Z,74.26
2022-12-31T09:25:15.660Z,73.70
2022-12-31T09:26:15.664Z,74.28
2022-12-31T09:27:15.605Z,72.91
2022-12-31T09:28:15.585Z,76.44
2022-12-31T09:29:15.556Z,74.16
2022-12-31T09:30:15.551Z,73.75
2022-12-31T09:31:15.605Z,74.75
2022-12-31T09:32:15.540Z,74.85
2022-12-31T09:33:15.537Z,73.00
2022-12-31T09:34:15.502Z,71.56
2022-12-31T09:35:15.497Z,74.22
2022-12-31T09:36:15.496Z,74.71
2022-12-31T09:37:15.495Z,74.48
2022-12-31T09:38:15.465Z,75.26
2022-12-31T09:39:15.461Z,75.07
2022-12-31T09:40:15.441Z,72.39
2022-12-31T09:41:15.460Z,74.24
2022-12-31T09:42:15.440Z,72.25
2022-12-31T09:43:15.405Z,74.90
2022-12-31T09:44:15.415Z,74.35
2022-12-31T09:45:15.397Z,75.07
2022-12-31T09:46:15.497Z,75.67
2022-12-31T09:47:15.385Z,73.43
2022-12-31T09:48:15.390Z,75.89
2022-12-31T09:49:15.369Z,74.16
2022-12-31T09:50:15.537Z,74.93
2022-12-31T09:51:17.134Z,74.23
2022-12-31T09:52:16.352Z,72.52
2022-12-31T09:53:15.311Z,73.64
2022-12-31T09:54:15.285Z,71.36
2022-12-31T09:55:15.293Z,74.56
2022-12-31T09:56:15.373Z,72.33
2022-12-31T09:57:15.293Z,75.94
2022-12-31T09:58:15.260Z,72.11
2022-12-31T09:59:15.236Z,74.86
2022-12-31T10:00:15.253Z,71.93
2022-12-31T10:01:15.340Z,74.11
2022-12-31T10:02:15.292Z,74.17
2022-12-31T10:03:15.277Z,75.62
2022-12-31T10:04:15.188Z,72.33
2022-12-31T10:05:15.158Z,73.43
2022-12-31T10:06:15.297Z,75.18
2022-12-31T10:07:15.158Z,75.68
2022-12-31T10:08:15.747Z,74.39
2022-12-31T10:09:15.158Z,73.29
2022-12-31T10:10:15.149Z,73.75
2022-12-31T10:11:15.103Z,71.23
2022-12-31T10:12:15.095Z,74.23
2022-12-31T10:13:15.096Z,73.60
2022-12-31T10:14:15.108Z,72.43
2022-12-31T10:15:15.083Z,72.73
2022-12-31T10:16:15.082Z,73.47
2022-12-31T10:17:15.034Z,72.94
2022-12-31T10:18:15.043Z,72.43
2022-12-31T10:19:15.021Z,71.12
2022-12-31T10:20:15.046Z,74.44
2022-12-31T10:21:14.995Z,75.53
2022-12-31T10:22:15.013Z,74.63
2022-12-31T10:23:15.017Z,72.52
2022-12-31T10:24:14.978Z,73.41
2022-12-31T10:25:14.999Z,74.79
2022-12-31T10:26:14.951Z,73.61
2022-12-31T10:27:14.944Z,75.38
2022-12-31T10:28:14.911Z,73.46
2022-12-31T10:29:14.921Z,73.15
2022-12-31T10:30:14.941Z,75.62
2022-12-31T10:31:14.923Z,74.51
2022-12-31T10:32:14.873Z,72.06
2022-12-31T10:33:14.863Z,75.96
2022-12-31T10:34:14.868Z,73.69
2022-12-31T10:35:14.849Z,74.50
2022-12-31T10:36:14.860Z,74.37
2022-12-31T10:37:14.840Z,74.91
2022-12-31T10:38:14.801Z,73.82
2022-12-31T10:39:20.485Z,72.24
2022-12-31T10:40:16.829Z,74.82
2022-12-31T10:41:14.801Z,73.26
2022-12-31T10:42:14.747Z,74.03
2022-12-31T10:43:14.751Z,74.43
2022-12-31T10:44:14.748Z,74.49
2022-12-31T10:45:14.759Z,74.25
2022-12-31T10:46:19.138Z,75.24
2022-12-31T10:47:16.726Z,72.26
2022-12-31T10:48:14.691Z,75.59
2022-12-31T10:49:14.690Z,74.72
2022-12-31T10:50:14.700Z,74.88
2022-12-31T10:51:14.761Z,73.58
2022-12-31T10:52:14.659Z,73.01
2022-12-31T10:53:14.640Z,73.14
2022-12-31T10:54:14.636Z,73.19
2022-12-31T10:55:14.624Z,73.45
2022-12-31T10:56:14.636Z,73.74
2022-12-31T10:57:14.624Z,76.14
2022-12-31T10:58:14.603Z,74.67
2022-12-31T10:59:46.488Z,74.28
2022-12-31T11:00:14.571Z,74.62
2022-12-31T11:01:14.654Z,74.59
2022-12-31T11:02:14.767Z,71.23
2022-12-31T11:03:14.678Z,73.14
2022-12-31T11:04:14.569Z,74.18
2022-12-31T11:05:14.525Z,73.73
2022-12-31T11:06:14.512Z,71.68
2022-12-31T11:07:14.522Z,73.08
2022-12-31T11:08:14.488Z,71.59
2022-12-31T11:09:14.497Z,74.64
2022-12-31T11:10:14.483Z,73.15
2022-12-31T11:11:14.449Z,74.05
2022-12-31T11:12:14.473Z,74.29
2022-12-31T11:13:14.440Z,75.00
2022-12-31T11:14:14.420Z,72.50
2022-12-31T11:15:14.414Z,70.67
2022-12-31T11:16:14.455Z,74.78
2022-12-31T11:17:14.402Z,75.09
2022-12-31T11:18:14.453Z,73.75
2022-12-31T11:19:14.378Z,73.31
2022-12-31T11:20:14.395Z,73.59
2022-12-31T11:21:14.381Z,74.24
2022-12-31T11:22:14.365Z,73.36
2022-12-31T11:23:14.313Z,74.96
2022-12-31T11:24:14.314Z,74.73
2022-12-31T11:25:14.321Z,74.53
2022-12-31T11:26:14.303Z,75.30
2022-12-31T11:27:14.278Z,72.62
2022-12-31T11:28:14.318Z,73.80
2022-12-31T11:29:14.267Z,73.95
2022-12-31T11:30:14.282Z,75.08
2022-12-31T11:31:14.417Z,72.90
2022-12-31T11:32:14.253Z,74.68
2022-12-31T11:33:14.231Z,73.46
2022-12-31T11:34:14.220Z,74.73
2022-12-31T11:35:14.259Z,73.68
2022-12-31T11:36:14.277Z,71.51
2022-12-31T11:37:14.258Z,71.54
2022-12-31T11:38:14.185Z,75.17
2022-12-31T11:39:14.199Z,72.05
2022-12-31T11:40:14.177Z,74.45
2022-12-31T11:41:15.106Z,73.86
2022-12-31T11:42:14.211Z,73.10
2022-12-31T11:43:14.108Z,73.44
2022-12-31T11:44:14.097Z,71.58
2022-12-31T11:45:14.112Z,72.22
2022-12-31T11:46:14.140Z,74.53
2022-12-31T11:47:14.051Z,73.09
2022-12-31T11:48:30.224Z,75.15
2022-12-31T11:49:16.052Z,71.87
2022-12-31T11:50:14.069Z,71.93
2022-12-31T11:51:14.079Z,74.60
2022-12-31T11:52:18.263Z,73.84
2022-12-31T11:53:16.013Z,74.06
2022-12-31T11:54:13.977Z,73.25
2022-12-31T11:55:14.012Z,71.97
2022-12-31T11:56:13.998Z,74.53
2022-12-31T11:57:13.991Z,74.45
2022-12-31T11:58:13.935Z,73.12
2022-12-31T11:59:18.877Z,73.97
2022-12-31T12:00:14.927Z,71.22
2022-12-31T12:01:13.951Z,73.31
2022-12-31T12:02:13.887Z,72.98
2022-12-31T12:03:13.959Z,72.61
2022-12-31T12:04:13.901Z,69.38
2022-12-31T12:05:13.895Z,73.42
2022-12-31T12:06:13.851Z,73.17
2022-12-31T12:07:13.862Z,71.78
2022-12-31T12:08:13.826Z,72.49
2022-12-31T12:09:13.824Z,71.05
2022-12-31T12:10:13.828Z,72.76
2022-12-31T12:11:13.790Z,74.96
2022-12-31T12:12:13.778Z,73.64
2022-12-31T12:13:13.767Z,73.11
2022-12-31T12:14:13.739Z,72.92
2022-12-31T12:15:13.751Z,75.62
2022-12-31T12:16:13.750Z,74.44
2022-12-31T12:17:13.729Z,72.85
2022-12-31T12:18:13.734Z,76.49
2022-12-31T12:19:13.679Z,72.99
2022-12-31T12:20:13.684Z,71.86
2022-12-31T12:21:13.684Z,73.67
2022-12-31T12:22:13.663Z,75.35
2022-12-31T12:23:13.651Z,73.62
2022-12-31T12:24:13.636Z,70.61
2022-12-31T12:25:13.696Z,75.34
2022-12-31T12:26:13.602Z,72.63
2022-12-31T12:27:13.594Z,71.06
2022-12-31T12:28:13.606Z,74.49
2022-12-31T12:29:13.759Z,74.68
2022-12-31T12:30:13.554Z,74.48
2022-12-31T12:31:13.558Z,72.69
2022-12-31T12:32:13.562Z,72.35
2022-12-31T12:33:13.576Z,73.57
2022-12-31T12:34:13.525Z,73.41
2022-12-31T12:35:13.526Z,72.52
2022-12-31T12:36:13.507Z,70.36
2022-12-31T12:37:13.477Z,74.81
2022-12-31T12:38:13.482Z,71.65
2022-12-31T12:39:13.489Z,74.23
2022-12-31T12:40:13.448Z,75.15
2022-12-31T12:41:13.435Z,74.67
2022-12-31T12:42:13.437Z,71.92
2022-12-31T12:43:13.459Z,73.58
2022-12-31T12:44:13.418Z,71.97
2022-12-31T12:45:13.401Z,69.70
2022-12-31T12:46:13.482Z,69.84
2022-12-31T12:47:13.485Z,75.83
2022-12-31T12:48:13.357Z,74.26
2022-12-31T12:49:13.344Z,73.76
2022-12-31T12:50:13.340Z,71.27
2022-12-31T12:51:13.356Z,70.62
2022-12-31T12:52:13.333Z,72.69